Terminal Aerodrome Forecast
Issued by NWS

Home | Current Version | Previous Version | Text Only | Print | Product List | Glossary Off
Versions: 1 2 3 4 5 6 7 8 9 10 11 12 13 14 15 16

000
FTUS43 KGRB 160500
TAFCWA
TAF
KCWA 160520Z 1606/1706 30003KT P6SM SKC
      TEMPO 1608/1612 2SM BR
     FM161600 27008G13KT P6SM SCT030
     FM162300 24004KT P6SM SKC
      AMD LTD TO CLD VIS AND WIND TIL 161200=

USA.gov is the U.S. government's official web portal to all federal, state and local government web resources and services.